Time;durP1;ratioP1;P1;durP2;ratioP2;P2;SDS_P1;SDS_P2;PMS_P1;PMS_P2;Temp;Humidity;BMP_temperature;BMP_pressure;BME280_temperature;BME280_humidity;BME280_pressure;Samples;Min_cycle;Max_cycle;Signal;HPM_P1;HPM_P2
2023/12/15 00:00:42;;;;;;;;;;;5.80;99.90;;;;;;5111144;28;19985;-31
2023/12/15 00:03:09;;;;;;;;;;;5.80;99.90;;;;;;5113907;28;20471;-31
2023/12/15 00:05:37;;;;;;;;;;;5.80;99.90;;;;;;5110611;27;19941;-31
2023/12/15 00:08:03;;;;;;;;;;;5.80;99.90;;;;;;5134956;27;19936;-32
2023/12/15 00:10:31;;;;;;;;;;;5.90;99.90;;;;;;5136340;27;20399;-29
2023/12/15 00:12:57;;;;;;;;;;;5.80;99.90;;;;;;5114811;27;21492;-31
2023/12/15 00:15:24;;;;;;;;;;;5.90;99.90;;;;;;5108377;28;20338;-31
2023/12/15 00:17:51;;;;;;;;;;;5.90;99.90;;;;;;5110190;27;19938;-31
2023/12/15 00:20:17;;;;;;;;;;;5.90;99.90;;;;;;5123201;27;19939;-32
2023/12/15 00:22:45;;;;;;;;;;;5.90;99.90;;;;;;5117475;27;20013;-31
2023/12/15 00:25:11;;;;;;;;;;;5.90;99.90;;;;;;5111497;28;19938;-31
2023/12/15 00:27:38;;;;;;;;;;;5.90;99.90;;;;;;5114151;27;20383;-31
2023/12/15 00:30:05;;;;;;;;;;;6.00;99.90;;;;;;5109646;28;19940;-31
2023/12/15 00:32:32;;;;;;;;;;;6.00;99.90;;;;;;5130609;27;19996;-30
2023/12/15 00:34:58;;;;;;;;;;;6.00;99.90;;;;;;5117844;27;19941;-31
2023/12/15 00:37:27;;;;;;;;;;;6.00;99.90;;;;;;5129185;27;19965;-31
2023/12/15 00:39:55;;;;;;;;;;;6.00;99.90;;;;;;5109117;27;19940;-32
2023/12/15 00:42:21;;;;;;;;;;;6.00;99.90;;;;;;5101408;27;19954;-30
2023/12/15 00:44:48;;;;;;;;;;;6.00;99.90;;;;;;5117782;27;19992;-31
2023/12/15 00:47:15;;;;;;;;;;;6.10;99.90;;;;;;5134886;27;20623;-31
2023/12/15 00:49:42;;;;;;;;;;;6.10;99.90;;;;;;5135121;27;20469;-31
2023/12/15 00:52:09;;;;;;;;;;;6.10;99.90;;;;;;5116083;27;20480;-32
2023/12/15 00:54:35;;;;;;;;;;;6.10;99.90;;;;;;5104658;27;20006;-31
2023/12/15 00:57:03;;;;;;;;;;;6.10;99.90;;;;;;5134732;27;19961;-31
2023/12/15 00:59:30;;;;;;;;;;;6.10;99.90;;;;;;5101785;28;20428;-32
2023/12/15 01:01:57;;;;;;;;;;;6.20;99.90;;;;;;5106422;28;19969;-31
2023/12/15 01:04:23;;;;;;;;;;;6.20;99.90;;;;;;5128689;27;19987;-32
2023/12/15 01:06:50;;;;;;;;;;;6.20;99.90;;;;;;5117004;27;19979;-32
2023/12/15 01:09:17;;;;;;;;;;;6.20;99.90;;;;;;5117608;27;20460;-33
2023/12/15 01:11:43;;;;;;;;;;;6.20;99.90;;;;;;5121963;27;20018;-32
2023/12/15 01:14:11;;;;;;;;;;;6.20;99.90;;;;;;5111460;27;20012;-31
2023/12/15 01:16:44;;;;;;;;;;;6.20;99.90;;;;;;5135216;27;19986;-31
2023/12/15 01:19:10;;;;;;;;;;;6.20;99.90;;;;;;5116623;27;19983;-31
2023/12/15 01:21:37;;;;;;;;;;;6.20;99.90;;;;;;5116501;27;20049;-31
2023/12/15 01:24:04;;;;;;;;;;;6.20;99.90;;;;;;5117212;27;19974;-31
2023/12/15 01:26:30;;;;;;;;;;;6.20;99.90;;;;;;5116432;27;19992;-31
2023/12/15 01:28:57;;;;;;;;;;;6.30;99.90;;;;;;5112391;27;19942;-31
2023/12/15 01:31:25;;;;;;;;;;;6.30;99.90;;;;;;5116828;27;19938;-32
2023/12/15 01:33:51;;;;;;;;;;;6.30;99.90;;;;;;5115823;27;19940;-31
2023/12/15 01:36:18;;;;;;;;;;;6.30;99.90;;;;;;5126036;27;20358;-32
2023/12/15 01:38:45;;;;;;;;;;;6.30;99.90;;;;;;5134579;27;19938;-30
2023/12/15 01:41:12;;;;;;;;;;;6.30;99.90;;;;;;5134364;27;19988;-31
2023/12/15 01:43:38;;;;;;;;;;;6.30;99.90;;;;;;5134204;27;19942;-31
2023/12/15 01:46:05;;;;;;;;;;;6.30;99.90;;;;;;5115229;27;19992;-31
2023/12/15 01:48:33;;;;;;;;;;;6.30;99.90;;;;;;5115565;27;20446;-32
2023/12/15 01:51:00;;;;;;;;;;;6.40;99.90;;;;;;5133209;27;19940;-32
2023/12/15 01:53:26;;;;;;;;;;;6.40;99.90;;;;;;5116373;27;19942;-31
2023/12/15 01:55:53;;;;;;;;;;;6.40;99.90;;;;;;5115765;27;19938;-31
2023/12/15 01:58:19;;;;;;;;;;;6.40;99.90;;;;;;5114661;27;19938;-31
2023/12/15 02:00:47;;;;;;;;;;;6.40;99.90;;;;;;5134391;27;20061;-31
2023/12/15 02:03:14;;;;;;;;;;;6.40;99.90;;;;;;5110380;27;20002;-32
2023/12/15 02:05:42;;;;;;;;;;;6.50;99.90;;;;;;5116054;27;20029;-32
2023/12/15 02:08:08;;;;;;;;;;;6.50;99.90;;;;;;5115040;27;20276;-31
2023/12/15 02:10:37;;;;;;;;;;;6.50;99.90;;;;;;5133549;27;19935;-30
2023/12/15 02:13:03;;;;;;;;;;;6.40;99.90;;;;;;5134051;27;19958;-30
2023/12/15 02:15:30;;;;;;;;;;;6.50;99.90;;;;;;5125464;27;19941;-31
2023/12/15 02:17:57;;;;;;;;;;;6.50;99.90;;;;;;5099754;28;19994;-31
2023/12/15 02:20:23;;;;;;;;;;;6.60;99.90;;;;;;5108712;27;19941;-30
2023/12/15 02:22:51;;;;;;;;;;;6.60;99.90;;;;;;5113731;27;20003;-31
2023/12/15 02:25:18;;;;;;;;;;;6.50;99.90;;;;;;5112800;27;19934;-32
2023/12/15 02:27:45;;;;;;;;;;;6.60;99.90;;;;;;5106871;28;20377;-32
2023/12/15 02:30:11;;;;;;;;;;;6.60;99.90;;;;;;5124824;27;19945;-32
2023/12/15 02:32:38;;;;;;;;;;;6.60;99.90;;;;;;5115988;27;19936;-31
2023/12/15 02:35:05;;;;;;;;;;;6.60;99.90;;;;;;5133285;27;19941;-30
2023/12/15 02:37:31;;;;;;;;;;;6.60;99.90;;;;;;5113298;27;20393;-31
2023/12/15 02:39:59;;;;;;;;;;;6.60;99.90;;;;;;5105883;27;19980;-32
2023/12/15 02:42:26;;;;;;;;;;;6.60;99.90;;;;;;5104720;27;20005;-32
2023/12/15 02:44:53;;;;;;;;;;;6.70;99.90;;;;;;5115574;27;19991;-31
2023/12/15 02:47:19;;;;;;;;;;;6.70;99.90;;;;;;5114295;27;19983;-31
2023/12/15 02:49:46;;;;;;;;;;;6.70;99.90;;;;;;5112703;27;19997;-31
2023/12/15 02:52:12;;;;;;;;;;;6.70;99.90;;;;;;5115299;27;19969;-32
2023/12/15 02:54:39;;;;;;;;;;;6.70;99.90;;;;;;5114899;27;19933;-31
2023/12/15 02:57:07;;;;;;;;;;;6.70;99.90;;;;;;5134167;27;19940;-32
2023/12/15 02:59:34;;;;;;;;;;;6.70;99.90;;;;;;5104979;27;19936;-32
2023/12/15 03:02:00;;;;;;;;;;;6.70;99.90;;;;;;5130762;27;19955;-32
2023/12/15 03:04:27;;;;;;;;;;;6.70;99.90;;;;;;5121777;27;19987;-31
2023/12/15 03:06:54;;;;;;;;;;;6.70;99.90;;;;;;5115695;27;19937;-32
2023/12/15 03:09:21;;;;;;;;;;;6.70;99.90;;;;;;5110182;28;19990;-31
2023/12/15 03:11:48;;;;;;;;;;;6.70;99.90;;;;;;5101465;28;19945;-32
2023/12/15 03:14:16;;;;;;;;;;;6.70;99.90;;;;;;5109352;27;19963;-31
2023/12/15 03:16:43;;;;;;;;;;;6.70;99.90;;;;;;5131982;27;19998;-31
2023/12/15 03:19:09;;;;;;;;;;;6.70;99.90;;;;;;5114044;27;19985;-31
2023/12/15 03:21:36;;;;;;;;;;;6.80;99.90;;;;;;5114733;27;20335;-31
2023/12/15 03:24:02;;;;;;;;;;;6.70;99.90;;;;;;5121397;27;20321;-32
2023/12/15 03:26:29;;;;;;;;;;;6.80;99.90;;;;;;5112275;27;19988;-32
2023/12/15 03:28:56;;;;;;;;;;;6.80;99.90;;;;;;5112276;27;19981;-31
2023/12/15 03:31:24;;;;;;;;;;;6.80;99.90;;;;;;5113304;27;20026;-31
2023/12/15 03:33:50;;;;;;;;;;;6.80;99.90;;;;;;5114362;27;19941;-32
2023/12/15 03:36:17;;;;;;;;;;;6.80;99.90;;;;;;5123499;27;20349;-31
2023/12/15 03:38:44;;;;;;;;;;;6.80;99.90;;;;;;5109419;27;19945;-32
2023/12/15 03:41:12;;;;;;;;;;;6.80;99.90;;;;;;5104535;28;19941;-32
2023/12/15 03:43:39;;;;;;;;;;;6.80;99.90;;;;;;5113930;27;20315;-32
2023/12/15 03:46:06;;;;;;;;;;;6.80;99.90;;;;;;5113043;27;20325;-31
2023/12/15 03:48:34;;;;;;;;;;;6.80;99.90;;;;;;5114228;28;19939;-30
2023/12/15 03:51:00;;;;;;;;;;;6.80;99.90;;;;;;5113182;28;19940;-30
2023/12/15 03:53:27;;;;;;;;;;;6.90;99.90;;;;;;5099128;28;20009;-31
2023/12/15 03:55:53;;;;;;;;;;;6.80;99.90;;;;;;5113665;28;19957;-32
2023/12/15 03:58:20;;;;;;;;;;;6.80;99.90;;;;;;5114215;28;19940;-31
2023/12/15 04:00:47;;;;;;;;;;;6.80;99.90;;;;;;5112717;28;20026;-29
2023/12/15 04:03:13;;;;;;;;;;;6.80;99.90;;;;;;5104068;28;19956;-32
2023/12/15 04:05:41;;;;;;;;;;;6.80;99.90;;;;;;5108602;28;20008;-31
2023/12/15 04:08:08;;;;;;;;;;;6.90;99.90;;;;;;5131302;28;19978;-31
2023/12/15 04:10:35;;;;;;;;;;;6.80;99.90;;;;;;5113884;28;19939;-31
2023/12/15 04:13:01;;;;;;;;;;;6.80;99.90;;;;;;5112865;28;20124;-32
2023/12/15 04:15:28;;;;;;;;;;;6.90;99.90;;;;;;5127988;28;19950;-31
2023/12/15 04:17:55;;;;;;;;;;;6.80;99.90;;;;;;5112398;28;19991;-31
2023/12/15 04:20:21;;;;;;;;;;;6.80;99.90;;;;;;5109105;28;19959;-30
2023/12/15 04:22:49;;;;;;;;;;;6.90;99.90;;;;;;5112411;28;20007;-31
2023/12/15 04:25:16;;;;;;;;;;;6.90;99.90;;;;;;5106686;28;20307;-32
2023/12/15 04:27:42;;;;;;;;;;;6.80;99.90;;;;;;5112929;28;19995;-31
2023/12/15 04:30:10;;;;;;;;;;;6.80;99.90;;;;;;5117862;28;19940;-31
2023/12/15 04:32:36;;;;;;;;;;;6.90;99.90;;;;;;5114429;28;19990;-31
2023/12/15 04:35:03;;;;;;;;;;;6.80;99.90;;;;;;5111896;28;19939;-31
2023/12/15 04:37:30;;;;;;;;;;;6.80;99.90;;;;;;5110480;28;19944;-31
2023/12/15 04:39:58;;;;;;;;;;;6.80;99.90;;;;;;5113585;28;19980;-30
2023/12/15 04:42:24;;;;;;;;;;;6.90;99.90;;;;;;5112786;28;19942;-32
2023/12/15 04:44:51;;;;;;;;;;;6.80;99.90;;;;;;5101280;28;19946;-31
2023/12/15 04:47:18;;;;;;;;;;;6.80;99.90;;;;;;5112994;28;19941;-31
2023/12/15 04:49:44;;;;;;;;;;;6.80;99.90;;;;;;5113447;28;19994;-31
2023/12/15 04:52:11;;;;;;;;;;;6.90;99.90;;;;;;5107429;27;19987;-31
2023/12/15 04:54:38;;;;;;;;;;;6.80;99.90;;;;;;5117205;27;19948;-32
2023/12/15 04:57:06;;;;;;;;;;;6.80;99.90;;;;;;5116578;27;19991;-32
2023/12/15 04:59:39;;;;;;;;;;;6.80;99.90;;;;;;5117077;27;19936;-32
2023/12/15 05:02:06;;;;;;;;;;;6.80;99.90;;;;;;5116918;27;19971;-31
2023/12/15 05:04:33;;;;;;;;;;;6.80;99.90;;;;;;5109453;27;20003;-31
2023/12/15 05:07:00;;;;;;;;;;;6.80;99.90;;;;;;5124697;27;19938;-30
2023/12/15 05:09:27;;;;;;;;;;;6.70;99.90;;;;;;5100904;28;19940;-30
2023/12/15 05:11:54;;;;;;;;;;;6.80;99.90;;;;;;5104069;27;20270;-31
2023/12/15 05:14:22;;;;;;;;;;;6.80;99.90;;;;;;5116690;27;19936;-30
2023/12/15 05:16:49;;;;;;;;;;;6.70;99.90;;;;;;5117347;27;20465;-31
2023/12/15 05:19:15;;;;;;;;;;;6.80;99.90;;;;;;5135095;27;19981;-31
2023/12/15 05:21:42;;;;;;;;;;;6.80;99.90;;;;;;5115872;27;19942;-32
2023/12/15 05:24:08;;;;;;;;;;;6.80;99.90;;;;;;5116118;27;19955;-32
2023/12/15 05:26:35;;;;;;;;;;;6.70;99.90;;;;;;5116258;27;20015;-30
2023/12/15 05:29:02;;;;;;;;;;;6.70;99.90;;;;;;5112932;27;19934;-32
2023/12/15 05:31:30;;;;;;;;;;;6.70;99.90;;;;;;5130395;27;20019;-32
2023/12/15 05:33:56;;;;;;;;;;;6.80;99.90;;;;;;5131781;27;19936;-31
2023/12/15 05:36:23;;;;;;;;;;;6.70;99.90;;;;;;5132215;27;20345;-31
2023/12/15 05:38:50;;;;;;;;;;;6.70;99.90;;;;;;5124444;27;20075;-32
2023/12/15 05:41:16;;;;;;;;;;;6.80;99.90;;;;;;5113357;27;19945;-31
2023/12/15 05:43:44;;;;;;;;;;;6.70;99.90;;;;;;5104433;28;19954;-32
2023/12/15 05:46:10;;;;;;;;;;;6.80;99.90;;;;;;5112722;27;19946;-31
2023/12/15 05:48:38;;;;;;;;;;;6.80;99.90;;;;;;5134330;27;19993;-32
2023/12/15 05:51:05;;;;;;;;;;;6.70;99.90;;;;;;5129215;27;19993;-31
2023/12/15 05:53:32;;;;;;;;;;;6.70;99.90;;;;;;5107678;27;19982;-32
2023/12/15 05:55:59;;;;;;;;;;;6.70;99.90;;;;;;5116888;27;19943;-31
2023/12/15 05:58:25;;;;;;;;;;;6.70;99.90;;;;;;5113598;27;20399;-32
2023/12/15 06:00:52;;;;;;;;;;;6.70;99.90;;;;;;5106821;27;19936;-31
2023/12/15 06:03:19;;;;;;;;;;;6.80;99.90;;;;;;5113256;27;20011;-31
2023/12/15 06:05:47;;;;;;;;;;;6.70;99.90;;;;;;5105470;27;19945;-32
2023/12/15 06:08:13;;;;;;;;;;;6.70;99.90;;;;;;5114931;27;19994;-32
2023/12/15 06:10:40;;;;;;;;;;;6.70;99.90;;;;;;5132030;27;19923;-31
2023/12/15 06:13:07;;;;;;;;;;;6.70;99.90;;;;;;5105136;27;19971;-31
2023/12/15 06:15:34;;;;;;;;;;;6.60;99.90;;;;;;5119515;27;19934;-31
2023/12/15 06:18:00;;;;;;;;;;;6.60;99.90;;;;;;5127331;27;19991;-31
2023/12/15 06:20:27;;;;;;;;;;;6.60;99.90;;;;;;5126316;27;19959;-32
2023/12/15 06:22:56;;;;;;;;;;;6.70;99.90;;;;;;5112213;27;20004;-30
2023/12/15 06:25:23;;;;;;;;;;;6.60;99.90;;;;;;5105934;27;20054;-31
2023/12/15 06:27:49;;;;;;;;;;;6.50;99.90;;;;;;5130285;27;20015;-32
2023/12/15 06:30:16;;;;;;;;;;;6.50;99.90;;;;;;5124570;27;19981;-32
2023/12/15 06:32:43;;;;;;;;;;;6.50;99.90;;;;;;5111725;27;19943;-32
2023/12/15 06:35:09;;;;;;;;;;;6.50;99.90;;;;;;5111523;27;19934;-31
2023/12/15 06:37:36;;;;;;;;;;;6.50;99.90;;;;;;5119948;27;19955;-32
2023/12/15 06:40:04;;;;;;;;;;;6.40;99.90;;;;;;5113321;27;20403;-32
2023/12/15 06:42:31;;;;;;;;;;;6.50;99.90;;;;;;5130722;27;20372;-31
2023/12/15 06:45:04;;;;;;;;;;;6.50;99.90;;;;;;5112801;27;20038;-31
2023/12/15 06:47:30;;;;;;;;;;;6.50;99.90;;;;;;5124001;27;20565;-31
2023/12/15 06:49:57;;;;;;;;;;;6.50;99.90;;;;;;5105819;28;20006;-31
2023/12/15 06:52:24;;;;;;;;;;;6.50;99.90;;;;;;5101375;27;19951;-32
2023/12/15 06:54:50;;;;;;;;;;;6.50;99.90;;;;;;5104884;27;19996;-32
2023/12/15 06:57:18;;;;;;;;;;;6.50;99.90;;;;;;5131117;27;19937;-31
2023/12/15 06:59:45;;;;;;;;;;;6.50;99.90;;;;;;5104803;27;19949;-30
2023/12/15 07:02:12;;;;;;;;;;;6.50;99.90;;;;;;5123136;27;19957;-31
2023/12/15 07:04:38;;;;;;;;;;;6.50;99.90;;;;;;5121241;27;20051;-32
2023/12/15 07:07:05;;;;;;;;;;;6.50;99.90;;;;;;5110502;27;19941;-32
2023/12/15 07:09:32;;;;;;;;;;;6.50;99.90;;;;;;5098653;28;19924;-32
2023/12/15 07:12:00;;;;;;;;;;;6.50;99.90;;;;;;5113405;27;19975;-31
2023/12/15 07:14:28;;;;;;;;;;;6.50;99.90;;;;;;5100945;27;20456;-33
2023/12/15 07:16:55;;;;;;;;;;;6.50;99.90;;;;;;5105952;28;20382;-31
2023/12/15 07:19:21;;;;;;;;;;;6.50;99.90;;;;;;5125224;27;19940;-31
2023/12/15 07:21:48;;;;;;;;;;;6.50;99.90;;;;;;5113234;27;19947;-32
2023/12/15 07:24:15;;;;;;;;;;;6.50;99.90;;;;;;5107367;27;19998;-31
2023/12/15 07:26:41;;;;;;;;;;;6.50;99.90;;;;;;5098208;28;19991;-32
2023/12/15 07:29:08;;;;;;;;;;;6.50;99.90;;;;;;5123594;27;19989;-31
2023/12/15 07:31:36;;;;;;;;;;;6.50;99.90;;;;;;5114160;27;20366;-30
2023/12/15 07:34:02;;;;;;;;;;;6.50;99.90;;;;;;5122430;27;20629;-31
2023/12/15 07:36:29;;;;;;;;;;;6.50;99.90;;;;;;5111642;28;19990;-31
2023/12/15 07:38:56;;;;;;;;;;;6.50;99.90;;;;;;5127189;27;19942;-31
2023/12/15 07:41:22;;;;;;;;;;;6.50;99.90;;;;;;5131683;27;19944;-31
2023/12/15 07:43:49;;;;;;;;;;;6.50;99.90;;;;;;5132202;27;20307;-32
2023/12/15 07:46:16;;;;;;;;;;;6.40;99.90;;;;;;5113898;27;19991;-31
2023/12/15 07:48:44;;;;;;;;;;;6.50;99.90;;;;;;5131775;27;20326;-32
2023/12/15 07:51:15;;;;;;;;;;;6.50;99.90;;;;;;5113768;28;19976;-32
2023/12/15 07:53:42;;;;;;;;;;;6.50;99.90;;;;;;5129310;28;20294;-31
2023/12/15 07:56:09;;;;;;;;;;;6.40;99.90;;;;;;5111595;28;19945;-31
2023/12/15 07:58:36;;;;;;;;;;;6.40;99.90;;;;;;5092911;28;20363;-31
2023/12/15 08:01:02;;;;;;;;;;;6.40;99.90;;;;;;5093073;28;20073;-31
2023/12/15 08:03:29;;;;;;;;;;;6.40;99.90;;;;;;5111229;28;20359;-31
2023/12/15 08:05:57;;;;;;;;;;;6.40;99.90;;;;;;5111094;28;19958;-31
2023/12/15 08:08:23;;;;;;;;;;;6.40;99.90;;;;;;5108975;28;19987;-31
2023/12/15 08:10:51;;;;;;;;;;;6.30;99.90;;;;;;5117211;28;19947;-30
2023/12/15 08:13:17;;;;;;;;;;;6.30;99.90;;;;;;5131858;28;19930;-31
2023/12/15 08:15:45;;;;;;;;;;;6.30;99.90;;;;;;5128374;28;19940;-32
2023/12/15 08:18:11;;;;;;;;;;;6.40;99.90;;;;;;5109797;28;19990;-31
2023/12/15 08:20:38;;;;;;;;;;;6.30;99.90;;;;;;5126013;28;19989;-31
2023/12/15 08:23:06;;;;;;;;;;;6.30;99.90;;;;;;5122860;28;19935;-32
2023/12/15 08:25:33;;;;;;;;;;;6.30;99.90;;;;;;5095515;28;19939;-32
2023/12/15 08:28:02;;;;;;;;;;;6.30;99.90;;;;;;5095619;28;19984;-31
2023/12/15 08:30:29;;;;;;;;;;;6.30;99.90;;;;;;5111049;27;19987;-31
2023/12/15 08:32:58;;;;;;;;;;;6.30;99.90;;;;;;5106511;27;20303;-31
2023/12/15 08:35:24;;;;;;;;;;;6.30;99.90;;;;;;5114143;27;20420;-30
2023/12/15 08:37:51;;;;;;;;;;;6.30;99.90;;;;;;5131564;27;20186;-30
2023/12/15 08:40:19;;;;;;;;;;;6.30;99.90;;;;;;5129879;27;20064;-31
2023/12/15 08:42:45;;;;;;;;;;;6.30;99.90;;;;;;5099714;27;19946;-31
2023/12/15 08:45:12;;;;;;;;;;;6.40;99.90;;;;;;5101985;27;20454;-29
2023/12/15 08:47:39;;;;;;;;;;;6.40;99.90;;;;;;5100989;28;19939;-31
2023/12/15 08:50:06;;;;;;;;;;;6.40;99.90;;;;;;5103715;28;19937;-32
2023/12/15 08:52:32;;;;;;;;;;;6.40;99.90;;;;;;5111204;27;19941;-31
2023/12/15 08:54:59;;;;;;;;;;;6.40;99.90;;;;;;5133059;27;20625;-32
2023/12/15 08:57:27;;;;;;;;;;;6.50;99.90;;;;;;5113776;27;19991;-31
2023/12/15 08:59:53;;;;;;;;;;;6.50;99.90;;;;;;5111344;27;20019;-32
2023/12/15 09:02:20;;;;;;;;;;;6.60;99.90;;;;;;5117104;27;19937;-32
2023/12/15 09:04:47;;;;;;;;;;;6.60;99.90;;;;;;5113044;27;19999;-31
2023/12/15 09:07:14;;;;;;;;;;;6.70;99.90;;;;;;5119052;27;19940;-31
2023/12/15 09:09:41;;;;;;;;;;;6.70;99.90;;;;;;5125496;27;20397;-31
2023/12/15 09:12:08;;;;;;;;;;;6.70;99.90;;;;;;5123516;27;19951;-32
2023/12/15 09:14:36;;;;;;;;;;;6.70;99.90;;;;;;5100306;28;19956;-32
2023/12/15 09:17:03;;;;;;;;;;;6.80;99.90;;;;;;5117367;27;19973;-32
2023/12/15 09:19:30;;;;;;;;;;;6.80;99.90;;;;;;5118325;27;20361;-32
2023/12/15 09:21:56;;;;;;;;;;;6.80;99.90;;;;;;5117051;27;19981;-32
2023/12/15 09:24:23;;;;;;;;;;;6.90;99.90;;;;;;5119531;27;20001;-31
2023/12/15 09:26:49;;;;;;;;;;;6.90;99.90;;;;;;5114486;27;20018;-32
2023/12/15 09:29:18;;;;;;;;;;;6.90;99.90;;;;;;5132265;27;19934;-32
2023/12/15 09:31:46;;;;;;;;;;;6.90;99.90;;;;;;5114121;27;20044;-32
2023/12/15 09:34:13;;;;;;;;;;;7.00;99.90;;;;;;5120609;27;19995;-32
2023/12/15 09:36:40;;;;;;;;;;;7.00;99.90;;;;;;5128887;27;19990;-31
2023/12/15 09:39:07;;;;;;;;;;;7.00;99.90;;;;;;5112044;27;20560;-31
2023/12/15 09:41:35;;;;;;;;;;;7.10;99.90;;;;;;5105883;27;20390;-31
2023/12/15 09:44:02;;;;;;;;;;;7.10;99.90;;;;;;5115033;27;19937;-31
2023/12/15 09:46:28;;;;;;;;;;;7.20;99.90;;;;;;5099615;27;20384;-31
2023/12/15 09:48:56;;;;;;;;;;;7.20;99.90;;;;;;5110845;27;19985;-30
2023/12/15 09:51:23;;;;;;;;;;;7.20;99.90;;;;;;5130433;27;19939;-31
2023/12/15 09:53:50;;;;;;;;;;;7.30;99.90;;;;;;5099263;28;19936;-31
2023/12/15 09:56:17;;;;;;;;;;;7.20;99.90;;;;;;5119089;27;19984;-31
2023/12/15 09:58:43;;;;;;;;;;;7.20;99.90;;;;;;5114793;27;20383;-30
2023/12/15 10:01:10;;;;;;;;;;;7.30;99.90;;;;;;5116586;27;19986;-32
2023/12/15 10:03:37;;;;;;;;;;;7.30;99.90;;;;;;5113207;28;19993;-31
2023/12/15 10:06:05;;;;;;;;;;;7.30;99.90;;;;;;5116178;27;19954;-31
2023/12/15 10:08:39;;;;;;;;;;;7.30;99.90;;;;;;5099734;27;19941;-32
2023/12/15 10:11:07;;;;;;;;;;;7.30;99.90;;;;;;5121188;27;19936;-31
2023/12/15 10:13:33;;;;;;;;;;;7.30;99.90;;;;;;5133576;27;19959;-31
2023/12/15 10:16:00;;;;;;;;;;;7.40;99.90;;;;;;5133438;27;19950;-32
2023/12/15 10:18:27;;;;;;;;;;;7.40;99.90;;;;;;5095784;28;20304;-31
2023/12/15 10:20:54;;;;;;;;;;;7.50;99.90;;;;;;5123708;27;19988;-32
2023/12/15 10:23:27;;;;;;;;;;;7.50;99.90;;;;;;5109733;27;19992;-31
2023/12/15 10:25:54;;;;;;;;;;;7.50;99.90;;;;;;5103500;27;19998;-32
2023/12/15 10:28:21;;;;;;;;;;;7.60;99.90;;;;;;5115590;27;20039;-31
2023/12/15 10:30:48;;;;;;;;;;;7.60;99.90;;;;;;5120113;27;20034;-31
2023/12/15 10:33:16;;;;;;;;;;;7.60;99.90;;;;;;5124057;27;19981;-31
2023/12/15 10:35:43;;;;;;;;;;;7.70;99.90;;;;;;5094271;28;19991;-32
2023/12/15 10:38:10;;;;;;;;;;;7.70;99.90;;;;;;5097270;28;19971;-32
2023/12/15 10:40:38;;;;;;;;;;;7.70;99.90;;;;;;5100390;27;20357;-32
2023/12/15 10:43:05;;;;;;;;;;;7.70;99.90;;;;;;5118733;27;19958;-31
2023/12/15 10:45:32;;;;;;;;;;;7.80;99.90;;;;;;5103453;27;20006;-31
2023/12/15 10:47:59;;;;;;;;;;;7.80;99.90;;;;;;5129840;27;19938;-32
2023/12/15 10:50:25;;;;;;;;;;;7.80;99.90;;;;;;5105656;27;19959;-32
2023/12/15 10:52:52;;;;;;;;;;;7.80;99.90;;;;;;5130185;27;19942;-32
2023/12/15 10:55:20;;;;;;;;;;;7.90;99.90;;;;;;5116401;27;20413;-31
2023/12/15 10:57:48;;;;;;;;;;;7.90;99.90;;;;;;5116360;27;20397;-32
2023/12/15 11:00:17;;;;;;;;;;;7.90;99.90;;;;;;5104188;27;19935;-30
2023/12/15 11:02:44;;;;;;;;;;;7.90;99.90;;;;;;5101619;27;19940;-30
2023/12/15 11:05:11;;;;;;;;;;;7.90;99.90;;;;;;5123688;27;20009;-31
2023/12/15 11:07:39;;;;;;;;;;;8.00;99.90;;;;;;5105437;27;20335;-32
2023/12/15 11:10:08;;;;;;;;;;;8.00;99.90;;;;;;5105884;27;19940;-31
2023/12/15 11:12:36;;;;;;;;;;;8.00;99.90;;;;;;5108241;27;19942;-32
2023/12/15 11:15:05;;;;;;;;;;;8.10;99.90;;;;;;5117170;27;19947;-32
2023/12/15 11:17:32;;;;;;;;;;;8.10;99.90;;;;;;5119825;27;20349;-32
2023/12/15 11:19:59;;;;;;;;;;;8.10;99.90;;;;;;5100346;28;19982;-31
2023/12/15 11:22:27;;;;;;;;;;;8.20;99.90;;;;;;5123820;27;19936;-31
2023/12/15 11:24:53;;;;;;;;;;;8.20;99.90;;;;;;5104199;28;20037;-32
2023/12/15 11:27:20;;;;;;;;;;;8.20;99.90;;;;;;5092852;28;20441;-32
2023/12/15 11:29:46;;;;;;;;;;;8.30;99.90;;;;;;5092911;28;20367;-32
2023/12/15 11:32:30;;;;;;;;;;;8.20;99.90;;;;;;5105231;27;19935;-31
2023/12/15 11:34:57;;;;;;;;;;;8.30;99.90;;;;;;5112520;27;19986;-31
2023/12/15 11:37:24;;;;;;;;;;;8.30;99.90;;;;;;5099106;27;19961;-32
2023/12/15 11:39:51;;;;;;;;;;;8.40;99.90;;;;;;5112925;27;20424;-31
2023/12/15 11:42:18;;;;;;;;;;;8.40;99.90;;;;;;5110302;28;20412;-32
2023/12/15 11:44:44;;;;;;;;;;;8.40;99.90;;;;;;5104433;27;20429;-31
2023/12/15 11:47:12;;;;;;;;;;;8.50;99.90;;;;;;5106212;28;20029;-31
2023/12/15 11:49:42;;;;;;;;;;;8.50;99.90;;;;;;5118589;27;20375;-32
2023/12/15 11:52:10;;;;;;;;;;;8.50;99.90;;;;;;5117457;28;19943;-31
2023/12/15 11:54:36;;;;;;;;;;;8.50;99.90;;;;;;5105090;28;19948;-32
2023/12/15 11:57:05;;;;;;;;;;;8.50;99.90;;;;;;5119440;28;19940;-32
2023/12/15 11:59:34;;;;;;;;;;;8.60;99.90;;;;;;5125713;28;19995;-32
2023/12/15 12:02:01;;;;;;;;;;;8.60;99.90;;;;;;5109357;28;19941;-32
2023/12/15 12:04:29;;;;;;;;;;;8.60;99.90;;;;;;5109467;27;19985;-32
2023/12/15 12:06:57;;;;;;;;;;;8.70;99.90;;;;;;5121037;27;19942;-30
2023/12/15 12:09:24;;;;;;;;;;;8.70;99.90;;;;;;5102189;27;19936;-32
2023/12/15 12:11:51;;;;;;;;;;;8.70;99.90;;;;;;5109707;27;19941;-32
2023/12/15 12:14:18;;;;;;;;;;;8.80;99.90;;;;;;5111222;27;19958;-32
2023/12/15 12:16:48;;;;;;;;;;;8.80;99.90;;;;;;5112485;27;19964;-32
2023/12/15 12:19:15;;;;;;;;;;;8.90;99.90;;;;;;5118535;27;19936;-32
2023/12/15 12:21:43;;;;;;;;;;;8.90;99.90;;;;;;5122518;27;21593;-31
2023/12/15 12:24:11;;;;;;;;;;;9.00;99.90;;;;;;5117662;27;20335;-31
2023/12/15 12:26:38;;;;;;;;;;;9.00;99.90;;;;;;5137628;27;19952;-31
2023/12/15 12:29:04;;;;;;;;;;;9.10;99.90;;;;;;5135766;27;20278;-32
2023/12/15 12:31:31;;;;;;;;;;;9.20;99.90;;;;;;5106289;27;19966;-31
2023/12/15 12:33:58;;;;;;;;;;;9.20;99.90;;;;;;5121768;27;20435;-33
2023/12/15 12:36:24;;;;;;;;;;;9.20;99.90;;;;;;5134093;27;20002;-32
2023/12/15 12:38:51;;;;;;;;;;;9.30;99.90;;;;;;5108558;27;20383;-31
2023/12/15 12:41:19;;;;;;;;;;;9.30;99.90;;;;;;5119600;27;19937;-32
2023/12/15 12:43:45;;;;;;;;;;;9.30;99.90;;;;;;5138086;27;19984;-33
2023/12/15 12:46:12;;;;;;;;;;;9.30;99.90;;;;;;5132085;27;20372;-31
2023/12/15 12:48:39;;;;;;;;;;;9.30;99.90;;;;;;5139820;27;19945;-32
2023/12/15 12:51:05;;;;;;;;;;;9.30;99.90;;;;;;5136497;27;19937;-32
2023/12/15 12:53:32;;;;;;;;;;;9.30;99.90;;;;;;5112855;27;19943;-31
2023/12/15 12:55:59;;;;;;;;;;;9.30;99.90;;;;;;5119799;27;20363;-32
2023/12/15 12:58:27;;;;;;;;;;;9.30;99.90;;;;;;5109659;27;19935;-32
2023/12/15 13:00:53;;;;;;;;;;;9.30;99.90;;;;;;5121041;27;20297;-31
2023/12/15 13:03:20;;;;;;;;;;;9.30;99.90;;;;;;5116744;27;19942;-31
2023/12/15 13:05:47;;;;;;;;;;;9.30;99.90;;;;;;5110990;27;19960;-30
2023/12/15 13:08:14;;;;;;;;;;;9.30;99.90;;;;;;5141945;27;20357;-31
2023/12/15 13:10:41;;;;;;;;;;;9.30;99.90;;;;;;5118190;27;19941;-31
2023/12/15 13:13:08;;;;;;;;;;;9.30;99.90;;;;;;5117183;27;20511;-31
2023/12/15 13:15:36;;;;;;;;;;;9.40;99.90;;;;;;5117483;27;19939;-31
2023/12/15 13:18:03;;;;;;;;;;;9.40;99.90;;;;;;5135424;27;19996;-31
2023/12/15 13:20:29;;;;;;;;;;;9.30;99.90;;;;;;5134957;27;20013;-32
2023/12/15 13:22:56;;;;;;;;;;;9.40;99.90;;;;;;5135779;27;19945;-32
2023/12/15 13:25:23;;;;;;;;;;;9.40;99.90;;;;;;5109525;27;20434;-31
2023/12/15 13:27:51;;;;;;;;;;;9.40;99.90;;;;;;5110816;27;20404;-32
2023/12/15 13:30:18;;;;;;;;;;;9.40;99.90;;;;;;5116328;27;19936;-31
2023/12/15 13:32:46;;;;;;;;;;;9.40;99.90;;;;;;5117320;27;19985;-31
2023/12/15 13:35:15;;;;;;;;;;;9.30;99.90;;;;;;5117243;27;20387;-31
2023/12/15 13:37:42;;;;;;;;;;;9.30;99.90;;;;;;5115328;27;19943;-32
2023/12/15 13:40:11;;;;;;;;;;;9.30;99.90;;;;;;5114317;27;20379;-31
2023/12/15 13:42:38;;;;;;;;;;;9.30;99.90;;;;;;5112230;27;19949;-31
2023/12/15 13:45:05;;;;;;;;;;;9.40;99.90;;;;;;5102492;27;19991;-33
2023/12/15 13:47:33;;;;;;;;;;;9.40;99.90;;;;;;5108729;27;20356;-31
2023/12/15 13:50:01;;;;;;;;;;;9.40;99.90;;;;;;5107970;27;20275;-33
2023/12/15 13:52:28;;;;;;;;;;;9.40;99.90;;;;;;5107300;27;19944;-32
2023/12/15 13:54:54;;;;;;;;;;;9.40;99.90;;;;;;5122348;27;19956;-32
2023/12/15 13:57:21;;;;;;;;;;;9.30;99.90;;;;;;5112972;27;20690;-32
2023/12/15 13:59:47;;;;;;;;;;;9.30;99.90;;;;;;5108467;27;20381;-31
2023/12/15 14:02:14;;;;;;;;;;;9.40;99.90;;;;;;5109325;27;19944;-31
2023/12/15 14:04:41;;;;;;;;;;;9.40;99.90;;;;;;5109577;27;20002;-32
2023/12/15 14:07:09;;;;;;;;;;;9.30;99.90;;;;;;5110000;27;20060;-30
2023/12/15 14:09:36;;;;;;;;;;;9.30;99.90;;;;;;5110533;27;20017;-32
2023/12/15 14:12:02;;;;;;;;;;;9.30;99.90;;;;;;5111373;27;20421;-31
2023/12/15 14:14:29;;;;;;;;;;;9.30;99.90;;;;;;5127125;27;20425;-31
2023/12/15 14:16:55;;;;;;;;;;;9.30;99.90;;;;;;5109345;27;20471;-31
2023/12/15 14:19:22;;;;;;;;;;;9.30;99.90;;;;;;5120566;27;19934;-32
2023/12/15 14:21:48;;;;;;;;;;;9.30;99.90;;;;;;5122725;27;20360;-31
2023/12/15 14:24:18;;;;;;;;;;;9.20;99.90;;;;;;5101688;27;20037;-32
2023/12/15 14:26:45;;;;;;;;;;;9.20;99.90;;;;;;5127159;27;20423;-31
2023/12/15 14:29:11;;;;;;;;;;;9.20;99.90;;;;;;5128060;27;19939;-31